sensor_id;sensor_type;location;lat;lon;timestamp;P1;durP1;ratioP1;P2;durP2;ratioP2
75626;SDS011;64211;49.404;11.034;2022-11-20T00:02:22;20.80;;;8.13;;
75626;SDS011;64211;49.404;11.034;2022-11-20T00:04:48;22.67;;;9.18;;
75626;SDS011;64211;49.404;11.034;2022-11-20T00:07:14;22.92;;;8.05;;
75626;SDS011;64211;49.404;11.034;2022-11-20T00:09:40;23.50;;;8.82;;
75626;SDS011;64211;49.404;11.034;2022-11-20T00:12:06;20.08;;;8.32;;
75626;SDS011;64211;49.404;11.034;2022-11-20T00:14:32;23.05;;;8.80;;
75626;SDS011;64211;49.404;11.034;2022-11-20T00:16:57;27.40;;;9.57;;
75626;SDS011;64211;49.404;11.034;2022-11-20T00:19:23;26.20;;;9.70;;
75626;SDS011;64211;49.404;11.034;2022-11-20T00:21:49;22.35;;;8.82;;
75626;SDS011;64211;49.404;11.034;2022-11-20T00:24:16;21.45;;;8.60;;
75626;SDS011;64211;49.404;11.034;2022-11-20T00:26:42;24.20;;;9.20;;
75626;SDS011;64211;49.404;11.034;2022-11-20T00:29:08;26.23;;;9.88;;
75626;SDS011;64211;49.404;11.034;2022-11-20T00:31:35;21.92;;;8.77;;
75626;SDS011;64211;49.404;11.034;2022-11-20T00:34:01;23.48;;;9.05;;
75626;SDS011;64211;49.404;11.034;2022-11-20T00:36:27;24.35;;;8.93;;
75626;SDS011;64211;49.404;11.034;2022-11-20T00:38:54;22.85;;;7.97;;
75626;SDS011;64211;49.404;11.034;2022-11-20T00:41:24;19.08;;;7.50;;
75626;SDS011;64211;49.404;11.034;2022-11-20T00:43:51;24.58;;;8.23;;
75626;SDS011;64211;49.404;11.034;2022-11-20T00:46:19;24.55;;;8.65;;
75626;SDS011;64211;49.404;11.034;2022-11-20T00:48:47;23.33;;;8.50;;
75626;SDS011;64211;49.404;11.034;2022-11-20T00:51:13;20.60;;;8.25;;
75626;SDS011;64211;49.404;11.034;2022-11-20T00:53:41;19.83;;;7.40;;
75626;SDS011;64211;49.404;11.034;2022-11-20T00:56:09;20.52;;;7.35;;
75626;SDS011;64211;49.404;11.034;2022-11-20T00:58:37;19.10;;;7.38;;
75626;SDS011;64211;49.404;11.034;2022-11-20T01:03:36;22.98;;;8.25;;
75626;SDS011;64211;49.404;11.034;2022-11-20T01:06:05;22.85;;;8.48;;
75626;SDS011;64211;49.404;11.034;2022-11-20T01:08:41;22.50;;;8.30;;
75626;SDS011;64211;49.404;11.034;2022-11-20T01:11:09;23.10;;;8.40;;
75626;SDS011;64211;49.404;11.034;2022-11-20T01:13:36;22.02;;;7.93;;
75626;SDS011;64211;49.404;11.034;2022-11-20T01:16:10;22.90;;;8.75;;
75626;SDS011;64211;49.404;11.034;2022-11-20T01:18:42;20.25;;;8.05;;
75626;SDS011;64211;49.404;11.034;2022-11-20T01:21:14;18.35;;;7.97;;
75626;SDS011;64211;49.404;11.034;2022-11-20T01:23:42;23.08;;;8.43;;
75626;SDS011;64211;49.404;11.034;2022-11-20T01:26:09;24.75;;;9.00;;
75626;SDS011;64211;49.404;11.034;2022-11-20T01:28:37;23.33;;;8.90;;
75626;SDS011;64211;49.404;11.034;2022-11-20T01:31:17;22.70;;;7.95;;
75626;SDS011;64211;49.404;11.034;2022-11-20T01:33:45;22.13;;;8.55;;
75626;SDS011;64211;49.404;11.034;2022-11-20T01:36:13;22.00;;;8.30;;
75626;SDS011;64211;49.404;11.034;2022-11-20T01:38:39;26.33;;;8.38;;
75626;SDS011;64211;49.404;11.034;2022-11-20T01:41:05;21.48;;;8.20;;
75626;SDS011;64211;49.404;11.034;2022-11-20T01:43:32;23.27;;;7.78;;
75626;SDS011;64211;49.404;11.034;2022-11-20T01:46:00;25.33;;;9.63;;
75626;SDS011;64211;49.404;11.034;2022-11-20T01:51:39;21.73;;;7.35;;
75626;SDS011;64211;49.404;11.034;2022-11-20T01:59:09;22.63;;;8.18;;
75626;SDS011;64211;49.404;11.034;2022-11-20T02:01:37;26.23;;;8.38;;
75626;SDS011;64211;49.404;11.034;2022-11-20T02:04:04;22.75;;;8.93;;
75626;SDS011;64211;49.404;11.034;2022-11-20T02:09:03;20.92;;;7.53;;
75626;SDS011;64211;49.404;11.034;2022-11-20T02:11:30;23.48;;;8.15;;
75626;SDS011;64211;49.404;11.034;2022-11-20T02:13:56;22.73;;;8.18;;
75626;SDS011;64211;49.404;11.034;2022-11-20T02:16:26;23.27;;;8.40;;
75626;SDS011;64211;49.404;11.034;2022-11-20T02:19:05;24.33;;;8.50;;
75626;SDS011;64211;49.404;11.034;2022-11-20T02:24:13;21.48;;;7.60;;
75626;SDS011;64211;49.404;11.034;2022-11-20T02:26:49;23.23;;;7.93;;
75626;SDS011;64211;49.404;11.034;2022-11-20T02:29:16;26.33;;;9.15;;
75626;SDS011;64211;49.404;11.034;2022-11-20T02:31:48;21.73;;;7.60;;
75626;SDS011;64211;49.404;11.034;2022-11-20T02:34:14;26.20;;;8.15;;
75626;SDS011;64211;49.404;11.034;2022-11-20T02:36:39;21.10;;;8.20;;
75626;SDS011;64211;49.404;11.034;2022-11-20T02:39:06;23.20;;;8.82;;
75626;SDS011;64211;49.404;11.034;2022-11-20T02:41:35;23.63;;;8.77;;
75626;SDS011;64211;49.404;11.034;2022-11-20T02:44:02;22.40;;;8.43;;
75626;SDS011;64211;49.404;11.034;2022-11-20T02:46:29;23.38;;;7.97;;
75626;SDS011;64211;49.404;11.034;2022-11-20T02:48:56;24.15;;;8.57;;
75626;SDS011;64211;49.404;11.034;2022-11-20T02:51:21;24.60;;;8.07;;
75626;SDS011;64211;49.404;11.034;2022-11-20T02:53:47;26.88;;;8.90;;
75626;SDS011;64211;49.404;11.034;2022-11-20T02:56:13;21.60;;;8.00;;
75626;SDS011;64211;49.404;11.034;2022-11-20T02:58:39;19.85;;;7.80;;
75626;SDS011;64211;49.404;11.034;2022-11-20T03:01:05;23.83;;;7.97;;
75626;SDS011;64211;49.404;11.034;2022-11-20T03:03:31;20.77;;;7.68;;
75626;SDS011;64211;49.404;11.034;2022-11-20T03:05:58;24.73;;;7.97;;
75626;SDS011;64211;49.404;11.034;2022-11-20T03:08:24;22.88;;;8.10;;
75626;SDS011;64211;49.404;11.034;2022-11-20T03:10:51;20.30;;;8.15;;
75626;SDS011;64211;49.404;11.034;2022-11-20T03:13:17;21.50;;;8.20;;
75626;SDS011;64211;49.404;11.034;2022-11-20T03:15:43;23.27;;;8.30;;
75626;SDS011;64211;49.404;11.034;2022-11-20T03:18:08;24.15;;;7.55;;
75626;SDS011;64211;49.404;11.034;2022-11-20T03:20:34;23.63;;;8.48;;
75626;SDS011;64211;49.404;11.034;2022-11-20T03:23:00;21.73;;;7.57;;
75626;SDS011;64211;49.404;11.034;2022-11-20T03:25:26;26.25;;;7.72;;
75626;SDS011;64211;49.404;11.034;2022-11-20T03:27:53;19.60;;;7.35;;
75626;SDS011;64211;49.404;11.034;2022-11-20T03:30:19;22.77;;;8.15;;
75626;SDS011;64211;49.404;11.034;2022-11-20T03:32:45;18.45;;;7.72;;
75626;SDS011;64211;49.404;11.034;2022-11-20T03:35:11;24.80;;;8.20;;
75626;SDS011;64211;49.404;11.034;2022-11-20T03:37:37;25.02;;;7.63;;
75626;SDS011;64211;49.404;11.034;2022-11-20T03:40:02;19.80;;;7.85;;
75626;SDS011;64211;49.404;11.034;2022-11-20T03:42:29;19.40;;;7.40;;
75626;SDS011;64211;49.404;11.034;2022-11-20T03:45:13;21.83;;;7.50;;
75626;SDS011;64211;49.404;11.034;2022-11-20T03:47:41;20.40;;;8.02;;
75626;SDS011;64211;49.404;11.034;2022-11-20T03:50:07;25.63;;;8.25;;
75626;SDS011;64211;49.404;11.034;2022-11-20T03:52:34;19.55;;;7.75;;
75626;SDS011;64211;49.404;11.034;2022-11-20T03:55:00;23.25;;;8.55;;
75626;SDS011;64211;49.404;11.034;2022-11-20T03:57:25;20.65;;;7.80;;
75626;SDS011;64211;49.404;11.034;2022-11-20T03:59:51;23.45;;;7.82;;
75626;SDS011;64211;49.404;11.034;2022-11-20T04:02:17;21.58;;;7.85;;
75626;SDS011;64211;49.404;11.034;2022-11-20T04:04:43;19.45;;;8.20;;
75626;SDS011;64211;49.404;11.034;2022-11-20T04:07:09;21.15;;;8.25;;
75626;SDS011;64211;49.404;11.034;2022-11-20T04:09:35;24.02;;;9.13;;
75626;SDS011;64211;49.404;11.034;2022-11-20T04:12:01;22.27;;;8.00;;
75626;SDS011;64211;49.404;11.034;2022-11-20T04:14:26;19.85;;;8.48;;
75626;SDS011;64211;49.404;11.034;2022-11-20T04:16:52;19.33;;;8.35;;
75626;SDS011;64211;49.404;11.034;2022-11-20T04:19:18;20.60;;;7.70;;
75626;SDS011;64211;49.404;11.034;2022-11-20T04:21:44;22.25;;;7.97;;
75626;SDS011;64211;49.404;11.034;2022-11-20T04:24:10;18.38;;;6.82;;
75626;SDS011;64211;49.404;11.034;2022-11-20T04:26:37;21.95;;;7.60;;
75626;SDS011;64211;49.404;11.034;2022-11-20T04:29:03;23.70;;;7.88;;
75626;SDS011;64211;49.404;11.034;2022-11-20T04:31:30;19.05;;;7.45;;
75626;SDS011;64211;49.404;11.034;2022-11-20T04:34:01;19.98;;;7.63;;
75626;SDS011;64211;49.404;11.034;2022-11-20T04:36:29;56.80;;;22.90;;
75626;SDS011;64211;49.404;11.034;2022-11-20T04:38:59;43.95;;;15.85;;
75626;SDS011;64211;49.404;11.034;2022-11-20T04:41:28;27.63;;;11.20;;
75626;SDS011;64211;49.404;11.034;2022-11-20T04:43:56;30.05;;;12.07;;
75626;SDS011;64211;49.404;11.034;2022-11-20T04:46:29;22.48;;;8.20;;
75626;SDS011;64211;49.404;11.034;2022-11-20T04:48:56;26.27;;;9.52;;
75626;SDS011;64211;49.404;11.034;2022-11-20T04:51:22;21.90;;;7.63;;
75626;SDS011;64211;49.404;11.034;2022-11-20T04:53:48;23.25;;;8.98;;
75626;SDS011;64211;49.404;11.034;2022-11-20T04:56:14;19.70;;;7.53;;
75626;SDS011;64211;49.404;11.034;2022-11-20T04:58:41;19.10;;;7.15;;
75626;SDS011;64211;49.404;11.034;2022-11-20T05:01:09;25.88;;;9.32;;
75626;SDS011;64211;49.404;11.034;2022-11-20T05:03:37;23.35;;;8.63;;
75626;SDS011;64211;49.404;11.034;2022-11-20T05:06:08;17.95;;;7.57;;
75626;SDS011;64211;49.404;11.034;2022-11-20T05:08:35;25.20;;;8.95;;
75626;SDS011;64211;49.404;11.034;2022-11-20T05:11:05;32.08;;;13.15;;
75626;SDS011;64211;49.404;11.034;2022-11-20T05:13:35;37.22;;;13.73;;
75626;SDS011;64211;49.404;11.034;2022-11-20T05:16:06;28.52;;;11.63;;
75626;SDS011;64211;49.404;11.034;2022-11-20T05:18:34;27.73;;;10.23;;
75626;SDS011;64211;49.404;11.034;2022-11-20T05:21:01;22.55;;;9.55;;
75626;SDS011;64211;49.404;11.034;2022-11-20T05:23:27;23.77;;;8.98;;
75626;SDS011;64211;49.404;11.034;2022-11-20T05:25:54;19.20;;;7.20;;
75626;SDS011;64211;49.404;11.034;2022-11-20T05:28:24;19.13;;;6.32;;
75626;SDS011;64211;49.404;11.034;2022-11-20T05:30:52;20.13;;;6.93;;
75626;SDS011;64211;49.404;11.034;2022-11-20T05:33:18;18.50;;;6.47;;
75626;SDS011;64211;49.404;11.034;2022-11-20T05:35:44;22.80;;;8.35;;
75626;SDS011;64211;49.404;11.034;2022-11-20T05:38:10;20.85;;;8.13;;
75626;SDS011;64211;49.404;11.034;2022-11-20T05:40:35;17.10;;;6.70;;
75626;SDS011;64211;49.404;11.034;2022-11-20T05:43:01;18.70;;;6.75;;
75626;SDS011;64211;49.404;11.034;2022-11-20T05:45:27;20.77;;;6.63;;
75626;SDS011;64211;49.404;11.034;2022-11-20T05:47:53;18.70;;;7.15;;
75626;SDS011;64211;49.404;11.034;2022-11-20T05:50:22;19.45;;;7.03;;
75626;SDS011;64211;49.404;11.034;2022-11-20T05:52:48;19.15;;;6.65;;
75626;SDS011;64211;49.404;11.034;2022-11-20T05:55:13;18.45;;;6.63;;
75626;SDS011;64211;49.404;11.034;2022-11-20T05:57:39;19.63;;;7.63;;
75626;SDS011;64211;49.404;11.034;2022-11-20T06:00:05;18.85;;;6.50;;
75626;SDS011;64211;49.404;11.034;2022-11-20T06:02:34;19.38;;;6.13;;
75626;SDS011;64211;49.404;11.034;2022-11-20T06:05:00;18.20;;;6.68;;
75626;SDS011;64211;49.404;11.034;2022-11-20T06:07:26;18.85;;;7.15;;
75626;SDS011;64211;49.404;11.034;2022-11-20T06:09:52;14.80;;;6.38;;
75626;SDS011;64211;49.404;11.034;2022-11-20T06:12:17;17.48;;;7.43;;
75626;SDS011;64211;49.404;11.034;2022-11-20T06:14:43;17.92;;;7.45;;
75626;SDS011;64211;49.404;11.034;2022-11-20T06:17:09;19.88;;;6.38;;
75626;SDS011;64211;49.404;11.034;2022-11-20T06:19:35;18.00;;;6.68;;
75626;SDS011;64211;49.404;11.034;2022-11-20T06:22:00;19.90;;;7.38;;
75626;SDS011;64211;49.404;11.034;2022-11-20T06:24:26;21.38;;;7.55;;
75626;SDS011;64211;49.404;11.034;2022-11-20T06:26:52;17.35;;;7.38;;
75626;SDS011;64211;49.404;11.034;2022-11-20T06:29:18;17.05;;;6.93;;
75626;SDS011;64211;49.404;11.034;2022-11-20T06:31:43;18.58;;;7.20;;
75626;SDS011;64211;49.404;11.034;2022-11-20T06:34:10;17.13;;;6.82;;
75626;SDS011;64211;49.404;11.034;2022-11-20T06:36:37;19.55;;;7.63;;
75626;SDS011;64211;49.404;11.034;2022-11-20T06:39:02;16.85;;;7.50;;
75626;SDS011;64211;49.404;11.034;2022-11-20T06:41:28;17.92;;;7.15;;
75626;SDS011;64211;49.404;11.034;2022-11-20T06:43:54;19.50;;;7.28;;
75626;SDS011;64211;49.404;11.034;2022-11-20T06:46:20;18.70;;;6.47;;
75626;SDS011;64211;49.404;11.034;2022-11-20T06:48:47;17.90;;;6.30;;
75626;SDS011;64211;49.404;11.034;2022-11-20T06:51:13;18.02;;;6.90;;
75626;SDS011;64211;49.404;11.034;2022-11-20T06:53:39;19.40;;;7.32;;
75626;SDS011;64211;49.404;11.034;2022-11-20T06:56:06;18.45;;;7.38;;
75626;SDS011;64211;49.404;11.034;2022-11-20T06:58:33;21.00;;;8.48;;
75626;SDS011;64211;49.404;11.034;2022-11-20T07:01:00;19.50;;;8.25;;
75626;SDS011;64211;49.404;11.034;2022-11-20T07:03:27;20.30;;;7.55;;
75626;SDS011;64211;49.404;11.034;2022-11-20T07:05:56;19.30;;;7.90;;
75626;SDS011;64211;49.404;11.034;2022-11-20T07:08:23;19.27;;;7.78;;
75626;SDS011;64211;49.404;11.034;2022-11-20T07:10:50;17.95;;;6.97;;
75626;SDS011;64211;49.404;11.034;2022-11-20T07:13:15;23.77;;;8.40;;
75626;SDS011;64211;49.404;11.034;2022-11-20T07:15:41;16.58;;;7.32;;
75626;SDS011;64211;49.404;11.034;2022-11-20T07:18:07;17.50;;;6.85;;
75626;SDS011;64211;49.404;11.034;2022-11-20T07:20:33;14.68;;;5.85;;
75626;SDS011;64211;49.404;11.034;2022-11-20T07:22:59;17.55;;;7.05;;
75626;SDS011;64211;49.404;11.034;2022-11-20T07:25:25;16.55;;;6.20;;
75626;SDS011;64211;49.404;11.034;2022-11-20T07:27:51;18.80;;;6.70;;
75626;SDS011;64211;49.404;11.034;2022-11-20T07:30:17;18.35;;;7.97;;
75626;SDS011;64211;49.404;11.034;2022-11-20T07:32:46;17.95;;;6.82;;
75626;SDS011;64211;49.404;11.034;2022-11-20T07:35:15;18.88;;;6.20;;
75626;SDS011;64211;49.404;11.034;2022-11-20T07:37:41;17.48;;;6.70;;
75626;SDS011;64211;49.404;11.034;2022-11-20T07:40:07;20.80;;;7.15;;
75626;SDS011;64211;49.404;11.034;2022-11-20T07:42:33;30.30;;;11.02;;
75626;SDS011;64211;49.404;11.034;2022-11-20T07:44:58;31.63;;;11.93;;
75626;SDS011;64211;49.404;11.034;2022-11-20T07:47:24;26.08;;;10.02;;
75626;SDS011;64211;49.404;11.034;2022-11-20T07:49:50;23.10;;;8.73;;
75626;SDS011;64211;49.404;11.034;2022-11-20T07:52:16;22.50;;;9.55;;
75626;SDS011;64211;49.404;11.034;2022-11-20T07:54:41;24.60;;;9.85;;
75626;SDS011;64211;49.404;11.034;2022-11-20T07:57:07;26.10;;;8.93;;
75626;SDS011;64211;49.404;11.034;2022-11-20T07:59:33;22.90;;;9.20;;
75626;SDS011;64211;49.404;11.034;2022-11-20T08:01:58;17.10;;;7.28;;
75626;SDS011;64211;49.404;11.034;2022-11-20T08:04:24;17.65;;;7.13;;
75626;SDS011;64211;49.404;11.034;2022-11-20T08:06:51;40.75;;;12.13;;
75626;SDS011;64211;49.404;11.034;2022-11-20T08:09:17;43.15;;;14.23;;
75626;SDS011;64211;49.404;11.034;2022-11-20T08:11:43;49.72;;;16.63;;
75626;SDS011;64211;49.404;11.034;2022-11-20T08:14:27;33.38;;;13.00;;
75626;SDS011;64211;49.404;11.034;2022-11-20T08:16:53;22.42;;;9.43;;
75626;SDS011;64211;49.404;11.034;2022-11-20T08:19:19;25.77;;;10.60;;
75626;SDS011;64211;49.404;11.034;2022-11-20T08:21:46;19.83;;;8.70;;
75626;SDS011;64211;49.404;11.034;2022-11-20T08:24:11;22.30;;;9.18;;
75626;SDS011;64211;49.404;11.034;2022-11-20T08:26:38;19.27;;;8.65;;
75626;SDS011;64211;49.404;11.034;2022-11-20T08:29:04;16.35;;;7.82;;
75626;SDS011;64211;49.404;11.034;2022-11-20T08:31:32;33.03;;;13.57;;
75626;SDS011;64211;49.404;11.034;2022-11-20T08:33:57;38.65;;;16.30;;
75626;SDS011;64211;49.404;11.034;2022-11-20T08:36:24;31.35;;;12.82;;
75626;SDS011;64211;49.404;11.034;2022-11-20T08:38:51;25.10;;;9.90;;
75626;SDS011;64211;49.404;11.034;2022-11-20T08:41:18;21.63;;;8.80;;
75626;SDS011;64211;49.404;11.034;2022-11-20T08:46:27;17.23;;;7.15;;
75626;SDS011;64211;49.404;11.034;2022-11-20T08:48:59;16.00;;;6.45;;
75626;SDS011;64211;49.404;11.034;2022-11-20T08:51:25;14.63;;;6.28;;
75626;SDS011;64211;49.404;11.034;2022-11-20T08:53:51;13.23;;;6.32;;
75626;SDS011;64211;49.404;11.034;2022-11-20T08:56:17;13.43;;;5.93;;
75626;SDS011;64211;49.404;11.034;2022-11-20T08:58:43;14.13;;;6.05;;
75626;SDS011;64211;49.404;11.034;2022-11-20T09:01:29;13.32;;;5.70;;
75626;SDS011;64211;49.404;11.034;2022-11-20T09:03:55;13.02;;;5.93;;
75626;SDS011;64211;49.404;11.034;2022-11-20T09:06:22;17.40;;;7.60;;
75626;SDS011;64211;49.404;11.034;2022-11-20T09:08:51;18.38;;;6.97;;
75626;SDS011;64211;49.404;11.034;2022-11-20T09:11:17;19.30;;;7.55;;
75626;SDS011;64211;49.404;11.034;2022-11-20T09:13:43;19.17;;;9.40;;
75626;SDS011;64211;49.404;11.034;2022-11-20T09:19:52;27.10;;;10.27;;
75626;SDS011;64211;49.404;11.034;2022-11-20T09:22:22;26.88;;;12.55;;
75626;SDS011;64211;49.404;11.034;2022-11-20T09:24:48;28.48;;;12.35;;
75626;SDS011;64211;49.404;11.034;2022-11-20T09:27:14;30.00;;;12.90;;
75626;SDS011;64211;49.404;11.034;2022-11-20T09:29:45;35.53;;;13.73;;
75626;SDS011;64211;49.404;11.034;2022-11-20T09:32:10;22.05;;;9.98;;
75626;SDS011;64211;49.404;11.034;2022-11-20T09:34:36;16.13;;;6.78;;
75626;SDS011;64211;49.404;11.034;2022-11-20T09:37:02;17.80;;;7.95;;
75626;SDS011;64211;49.404;11.034;2022-11-20T09:39:32;17.25;;;7.32;;
75626;SDS011;64211;49.404;11.034;2022-11-20T09:44:34;19.98;;;8.60;;
75626;SDS011;64211;49.404;11.034;2022-11-20T09:55:41;21.88;;;9.65;;
75626;SDS011;64211;49.404;11.034;2022-11-20T09:58:13;26.08;;;11.18;;
75626;SDS011;64211;49.404;11.034;2022-11-20T10:00:56;21.60;;;9.57;;
75626;SDS011;64211;49.404;11.034;2022-11-20T10:03:34;20.45;;;9.02;;
75626;SDS011;64211;49.404;11.034;2022-11-20T10:06:24;18.48;;;8.07;;
75626;SDS011;64211;49.404;11.034;2022-11-20T10:09:18;21.73;;;8.85;;
75626;SDS011;64211;49.404;11.034;2022-11-20T10:14:56;17.92;;;8.02;;
75626;SDS011;64211;49.404;11.034;2022-11-20T10:20:28;18.85;;;8.45;;
75626;SDS011;64211;49.404;11.034;2022-11-20T10:23:21;21.92;;;9.50;;
75626;SDS011;64211;49.404;11.034;2022-11-20T10:28:45;18.95;;;8.98;;
75626;SDS011;64211;49.404;11.034;2022-11-20T10:31:35;24.55;;;11.23;;
75626;SDS011;64211;49.404;11.034;2022-11-20T10:34:05;20.77;;;10.00;;
75626;SDS011;64211;49.404;11.034;2022-11-20T10:36:56;18.08;;;8.60;;
75626;SDS011;64211;49.404;11.034;2022-11-20T10:39:42;20.55;;;8.63;;
75626;SDS011;64211;49.404;11.034;2022-11-20T10:42:18;18.52;;;8.50;;
75626;SDS011;64211;49.404;11.034;2022-11-20T10:44:58;18.70;;;8.27;;
75626;SDS011;64211;49.404;11.034;2022-11-20T10:47:34;18.40;;;8.23;;
75626;SDS011;64211;49.404;11.034;2022-11-20T10:50:03;15.98;;;9.02;;
75626;SDS011;64211;49.404;11.034;2022-11-20T10:58:03;14.82;;;7.40;;
75626;SDS011;64211;49.404;11.034;2022-11-20T11:00:38;16.30;;;6.53;;
75626;SDS011;64211;49.404;11.034;2022-11-20T11:03:13;13.98;;;6.25;;
75626;SDS011;64211;49.404;11.034;2022-11-20T11:05:59;8.73;;;4.40;;
75626;SDS011;64211;49.404;11.034;2022-11-20T11:08:32;8.02;;;3.90;;
75626;SDS011;64211;49.404;11.034;2022-11-20T11:11:07;3.88;;;2.33;;
75626;SDS011;64211;49.404;11.034;2022-11-20T11:13:45;4.53;;;2.40;;
75626;SDS011;64211;49.404;11.034;2022-11-20T11:16:25;2.88;;;2.22;;
75626;SDS011;64211;49.404;11.034;2022-11-20T11:19:02;3.30;;;1.88;;
75626;SDS011;64211;49.404;11.034;2022-11-20T11:21:32;3.55;;;1.63;;
75626;SDS011;64211;49.404;11.034;2022-11-20T11:24:02;2.83;;;1.60;;
75626;SDS011;64211;49.404;11.034;2022-11-20T11:26:56;2.88;;;1.70;;
75626;SDS011;64211;49.404;11.034;2022-11-20T11:29:24;6.68;;;3.45;;
75626;SDS011;64211;49.404;11.034;2022-11-20T11:32:15;10.02;;;4.85;;
75626;SDS011;64211;49.404;11.034;2022-11-20T11:35:05;11.10;;;6.32;;
75626;SDS011;64211;49.404;11.034;2022-11-20T11:37:43;11.93;;;6.07;;
75626;SDS011;64211;49.404;11.034;2022-11-20T11:40:12;11.55;;;5.40;;
75626;SDS011;64211;49.404;11.034;2022-11-20T11:43:16;10.18;;;4.55;;
75626;SDS011;64211;49.404;11.034;2022-11-20T11:46:04;9.23;;;5.68;;
75626;SDS011;64211;49.404;11.034;2022-11-20T11:54:23;9.77;;;4.65;;
75626;SDS011;64211;49.404;11.034;2022-11-20T11:56:53;10.90;;;5.15;;
75626;SDS011;64211;49.404;11.034;2022-11-20T11:59:33;8.77;;;4.32;;
75626;SDS011;64211;49.404;11.034;2022-11-20T12:04:59;7.63;;;4.25;;
75626;SDS011;64211;49.404;11.034;2022-11-20T12:07:44;9.82;;;4.45;;
75626;SDS011;64211;49.404;11.034;2022-11-20T12:13:01;10.10;;;4.60;;
75626;SDS011;64211;49.404;11.034;2022-11-20T12:15:38;9.75;;;5.47;;
75626;SDS011;64211;49.404;11.034;2022-11-20T12:18:09;10.60;;;5.43;;
75626;SDS011;64211;49.404;11.034;2022-11-20T12:20:41;9.15;;;4.97;;
75626;SDS011;64211;49.404;11.034;2022-11-20T12:23:28;8.00;;;4.55;;
75626;SDS011;64211;49.404;11.034;2022-11-20T12:26:14;9.43;;;4.90;;
75626;SDS011;64211;49.404;11.034;2022-11-20T12:31:44;11.15;;;5.30;;
75626;SDS011;64211;49.404;11.034;2022-11-20T12:37:01;7.63;;;4.75;;
75626;SDS011;64211;49.404;11.034;2022-11-20T12:39:41;10.35;;;4.65;;
75626;SDS011;64211;49.404;11.034;2022-11-20T12:42:27;9.93;;;4.15;;
75626;SDS011;64211;49.404;11.034;2022-11-20T12:50:51;8.93;;;5.35;;
75626;SDS011;64211;49.404;11.034;2022-11-20T13:05:01;6.72;;;3.72;;
75626;SDS011;64211;49.404;11.034;2022-11-20T13:07:44;8.85;;;3.70;;
75626;SDS011;64211;49.404;11.034;2022-11-20T13:10:14;9.52;;;3.60;;
75626;SDS011;64211;49.404;11.034;2022-11-20T13:13:10;6.95;;;3.90;;
75626;SDS011;64211;49.404;11.034;2022-11-20T13:15:48;7.13;;;3.60;;
75626;SDS011;64211;49.404;11.034;2022-11-20T13:18:21;6.53;;;3.50;;
75626;SDS011;64211;49.404;11.034;2022-11-20T13:20:47;6.78;;;3.92;;
75626;SDS011;64211;49.404;11.034;2022-11-20T13:25:51;6.97;;;3.60;;
75626;SDS011;64211;49.404;11.034;2022-11-20T13:28:28;5.95;;;3.50;;
75626;SDS011;64211;49.404;11.034;2022-11-20T13:30:55;7.63;;;3.30;;
75626;SDS011;64211;49.404;11.034;2022-11-20T13:33:25;5.65;;;3.25;;
75626;SDS011;64211;49.404;11.034;2022-11-20T13:35:55;6.40;;;3.35;;
75626;SDS011;64211;49.404;11.034;2022-11-20T13:38:27;7.03;;;3.72;;
75626;SDS011;64211;49.404;11.034;2022-11-20T13:40:59;7.38;;;3.80;;
75626;SDS011;64211;49.404;11.034;2022-11-20T13:43:49;9.18;;;4.35;;
75626;SDS011;64211;49.404;11.034;2022-11-20T13:46:15;9.13;;;3.90;;
75626;SDS011;64211;49.404;11.034;2022-11-20T13:48:42;7.53;;;3.95;;
75626;SDS011;64211;49.404;11.034;2022-11-20T13:54:43;7.78;;;3.55;;
75626;SDS011;64211;49.404;11.034;2022-11-20T13:57:01;9.30;;;4.20;;
75626;SDS011;64211;49.404;11.034;2022-11-20T14:02:27;7.63;;;3.70;;
75626;SDS011;64211;49.404;11.034;2022-11-20T14:04:56;6.47;;;3.28;;
75626;SDS011;64211;49.404;11.034;2022-11-20T14:07:25;7.35;;;3.78;;
75626;SDS011;64211;49.404;11.034;2022-11-20T14:10:04;8.18;;;4.35;;
75626;SDS011;64211;49.404;11.034;2022-11-20T14:12:32;9.15;;;3.97;;
75626;SDS011;64211;49.404;11.034;2022-11-20T14:14:59;7.97;;;4.00;;
75626;SDS011;64211;49.404;11.034;2022-11-20T14:19:53;7.68;;;3.95;;
75626;SDS011;64211;49.404;11.034;2022-11-20T14:22:24;7.88;;;4.13;;
75626;SDS011;64211;49.404;11.034;2022-11-20T14:25:05;10.00;;;4.65;;
75626;SDS011;64211;49.404;11.034;2022-11-20T14:27:33;9.40;;;4.28;;
75626;SDS011;64211;49.404;11.034;2022-11-20T14:30:02;9.27;;;4.35;;
75626;SDS011;64211;49.404;11.034;2022-11-20T14:32:29;8.70;;;4.10;;
75626;SDS011;64211;49.404;11.034;2022-11-20T14:37:25;8.98;;;3.90;;
75626;SDS011;64211;49.404;11.034;2022-11-20T14:39:55;10.70;;;4.45;;
75626;SDS011;64211;49.404;11.034;2022-11-20T14:42:23;10.05;;;4.95;;
75626;SDS011;64211;49.404;11.034;2022-11-20T14:44:50;10.13;;;4.45;;
75626;SDS011;64211;49.404;11.034;2022-11-20T14:47:18;9.93;;;4.85;;
75626;SDS011;64211;49.404;11.034;2022-11-20T14:49:48;10.15;;;4.22;;
75626;SDS011;64211;49.404;11.034;2022-11-20T14:52:21;11.73;;;5.22;;
75626;SDS011;64211;49.404;11.034;2022-11-20T14:54:49;10.70;;;5.03;;
75626;SDS011;64211;49.404;11.034;2022-11-20T14:59:48;11.23;;;4.50;;
75626;SDS011;64211;49.404;11.034;2022-11-20T15:02:14;10.10;;;4.88;;
75626;SDS011;64211;49.404;11.034;2022-11-20T15:04:46;10.23;;;5.38;;
75626;SDS011;64211;49.404;11.034;2022-11-20T15:10:00;13.65;;;5.85;;
75626;SDS011;64211;49.404;11.034;2022-11-20T15:12:26;16.08;;;6.70;;
75626;SDS011;64211;49.404;11.034;2022-11-20T15:14:52;14.10;;;5.00;;
75626;SDS011;64211;49.404;11.034;2022-11-20T15:17:18;11.77;;;4.88;;
75626;SDS011;64211;49.404;11.034;2022-11-20T15:19:43;13.52;;;5.40;;
75626;SDS011;64211;49.404;11.034;2022-11-20T15:22:10;12.65;;;5.68;;
75626;SDS011;64211;49.404;11.034;2022-11-20T15:24:41;11.02;;;4.82;;
75626;SDS011;64211;49.404;11.034;2022-11-20T15:27:08;12.73;;;4.90;;
75626;SDS011;64211;49.404;11.034;2022-11-20T15:29:34;8.93;;;4.38;;
75626;SDS011;64211;49.404;11.034;2022-11-20T15:32:00;11.90;;;4.53;;
75626;SDS011;64211;49.404;11.034;2022-11-20T15:34:26;10.77;;;4.53;;
75626;SDS011;64211;49.404;11.034;2022-11-20T15:36:52;11.00;;;4.45;;
75626;SDS011;64211;49.404;11.034;2022-11-20T15:39:19;11.90;;;4.63;;
75626;SDS011;64211;49.404;11.034;2022-11-20T15:41:45;10.45;;;4.75;;
75626;SDS011;64211;49.404;11.034;2022-11-20T15:44:12;14.68;;;7.18;;
75626;SDS011;64211;49.404;11.034;2022-11-20T15:46:39;14.38;;;5.57;;
75626;SDS011;64211;49.404;11.034;2022-11-20T15:49:11;12.05;;;5.53;;
75626;SDS011;64211;49.404;11.034;2022-11-20T15:51:43;12.15;;;5.00;;
75626;SDS011;64211;49.404;11.034;2022-11-20T15:54:12;11.07;;;5.38;;
75626;SDS011;64211;49.404;11.034;2022-11-20T15:56:38;9.07;;;4.65;;
75626;SDS011;64211;49.404;11.034;2022-11-20T15:59:04;9.35;;;4.57;;
75626;SDS011;64211;49.404;11.034;2022-11-20T16:01:30;10.30;;;4.65;;
75626;SDS011;64211;49.404;11.034;2022-11-20T16:03:56;11.52;;;4.90;;
75626;SDS011;64211;49.404;11.034;2022-11-20T16:06:21;11.88;;;4.90;;
75626;SDS011;64211;49.404;11.034;2022-11-20T16:08:47;9.90;;;4.75;;
75626;SDS011;64211;49.404;11.034;2022-11-20T16:11:13;11.60;;;5.10;;
75626;SDS011;64211;49.404;11.034;2022-11-20T16:13:40;11.50;;;5.57;;
75626;SDS011;64211;49.404;11.034;2022-11-20T16:16:27;12.32;;;5.82;;
75626;SDS011;64211;49.404;11.034;2022-11-20T16:18:55;12.13;;;5.80;;